createdAt,value
2019-03-27T00:00:02.394Z,5.8
2019-03-27T00:05:02.653Z,5.8
2019-03-27T00:10:08.141Z,5.8
2019-03-27T00:15:13.911Z,5.8
2019-03-27T00:20:03.029Z,5.8
2019-03-27T00:25:02.978Z,5.8
2019-03-27T00:30:08.050Z,5.8
2019-03-27T00:35:05.526Z,5.8
2019-03-27T00:40:10.522Z,5.8
2019-03-27T00:45:10.530Z,5.7
2019-03-27T00:50:05.018Z,5.8
2019-03-27T00:55:10.039Z,5.8
2019-03-27T01:00:13.199Z,5.9
2019-03-27T01:05:02.995Z,5.8
2019-03-27T01:10:25.282Z,5.9
2019-03-27T01:15:08.325Z,5.9
2019-03-27T01:20:25.130Z,5.9
2019-03-27T01:25:03.018Z,5.9
2019-03-27T01:30:10.620Z,5.9
2019-03-27T01:35:13.167Z,5.9
2019-03-27T01:40:07.666Z,5.8
2019-03-27T01:45:02.587Z,5.8
2019-03-27T01:50:05.263Z,5.9
2019-03-27T01:55:22.960Z,5.8
2019-03-27T02:05:05.303Z,5.8
2019-03-27T02:10:20.517Z,5.8
2019-03-27T02:15:05.232Z,5.8
2019-03-27T02:20:15.987Z,5.8
2019-03-27T02:25:03.223Z,5.8
2019-03-27T02:30:08.252Z,5.7
2019-03-27T02:35:05.013Z,5.7
2019-03-27T02:40:17.673Z,5.7
2019-03-27T02:45:17.689Z,5.7
2019-03-27T02:50:18.102Z,5.8
2019-03-27T02:55:02.874Z,5.8
2019-03-27T03:00:15.612Z,5.8
2019-03-27T03:05:02.920Z,5.8
2019-03-27T03:10:08.420Z,5.8
2019-03-27T03:15:03.296Z,5.8
2019-03-27T03:20:05.087Z,5.8
2019-03-27T03:25:07.572Z,5.8
2019-03-27T03:30:20.266Z,5.9
2019-03-27T03:35:02.592Z,5.9
2019-03-27T03:40:08.176Z,6
2019-03-27T03:45:25.857Z,6
2019-03-27T03:50:18.127Z,6
2019-03-27T03:55:05.402Z,6.1
2019-03-27T04:00:20.166Z,6.1
2019-03-27T04:05:05.043Z,6.2
2019-03-27T04:10:17.852Z,6.2
2019-03-27T04:15:22.815Z,6.2
2019-03-27T04:20:15.726Z,6.2
2019-03-27T04:25:05.358Z,6.3
2019-03-27T04:30:27.666Z,6.3
2019-03-27T04:35:05.194Z,6.3
2019-03-27T04:40:20.435Z,6.2
2019-03-27T04:45:05.152Z,6.2
2019-03-27T04:50:03.242Z,6.2
2019-03-27T04:55:03.197Z,6.2
2019-03-27T05:00:08.278Z,6.2
2019-03-27T05:05:15.764Z,6.2
2019-03-27T05:10:03.270Z,6.2
2019-03-27T05:15:03.120Z,6.2
2019-03-27T05:20:05.688Z,6.2
2019-03-27T05:25:10.687Z,6.2
2019-03-27T05:35:17.806Z,6.2
2019-03-27T05:40:03.220Z,6.2
2019-03-27T05:45:15.886Z,6.2
2019-03-27T05:50:05.482Z,6.1
2019-03-27T05:55:10.492Z,6.1
2019-03-27T06:00:10.137Z,6.1
2019-03-27T06:05:10.078Z,6.1
2019-03-27T06:10:35.425Z,6.1
2019-03-27T06:15:02.412Z,6.1
2019-03-27T06:20:04.998Z,6.2
2019-03-27T06:25:02.522Z,6.2
2019-03-27T06:30:02.432Z,6.2
2019-03-27T06:35:08.357Z,6.2
2019-03-27T06:40:02.820Z,6.3
2019-03-27T06:45:10.453Z,6.4
2019-03-27T06:50:05.847Z,6.4
2019-03-27T06:55:11.554Z,6.4
2019-03-27T07:00:02.553Z,6.4
2019-03-27T07:05:05.011Z,6.5
2019-03-27T07:10:02.534Z,6.5
2019-03-27T07:15:02.839Z,6.5
2019-03-27T07:20:02.913Z,6.5
2019-03-27T07:25:03.039Z,6.6
2019-03-27T07:30:10.806Z,6.7
2019-03-27T07:35:03.040Z,6.7
2019-03-27T07:45:02.659Z,6.8
2019-03-27T07:50:15.397Z,7
2019-03-27T07:55:22.802Z,7
2019-03-27T08:00:12.954Z,7
2019-03-27T08:05:03.031Z,7
2019-03-27T08:10:07.669Z,6.9
2019-03-27T08:15:05.057Z,7
2019-03-27T08:20:03.349Z,7
2019-03-27T08:25:10.657Z,7
2019-03-27T08:35:05.287Z,7.2
2019-03-27T08:40:15.442Z,7.1
2019-03-27T08:45:33.083Z,7.1
2019-03-27T08:50:05.618Z,7.2
2019-03-27T08:55:28.349Z,7.2
2019-03-27T09:00:04.957Z,7.3
2019-03-27T09:05:10.815Z,7.4
2019-03-27T09:15:07.556Z,7.6
2019-03-27T09:20:05.179Z,7.6
2019-03-27T09:25:30.438Z,7.7
2019-03-27T09:30:04.929Z,7.8
2019-03-27T09:35:32.797Z,7.8
2019-03-27T09:40:18.393Z,8
2019-03-27T09:45:05.692Z,8.1
2019-03-27T09:50:07.738Z,8.1
2019-03-27T09:55:05.475Z,8.2
2019-03-27T10:00:10.624Z,8.1
2019-03-27T10:05:05.476Z,8.2
2019-03-27T10:10:02.940Z,8.2
2019-03-27T10:15:15.631Z,8.2
2019-03-27T10:20:33.066Z,8.3
2019-03-27T10:25:05.588Z,8.3
2019-03-27T10:30:05.159Z,8.4
2019-03-27T10:35:15.190Z,8.5
2019-03-27T10:40:07.786Z,8.6
2019-03-27T10:45:20.374Z,8.7
2019-03-27T10:50:18.212Z,8.7
2019-03-27T10:55:02.483Z,8.7
2019-03-27T11:00:10.265Z,8.6
2019-03-27T11:05:05.165Z,8.7
2019-03-27T11:10:07.768Z,8.7
2019-03-27T11:15:07.686Z,8.7
2019-03-27T11:20:05.364Z,8.7
2019-03-27T11:25:02.490Z,8.7
2019-03-27T11:30:05.198Z,8.8
2019-03-27T11:35:02.555Z,8.8
2019-03-27T11:40:03.091Z,8.8
2019-03-27T11:45:23.265Z,9.3
2019-03-27T11:50:08.372Z,9.3
2019-03-27T11:55:03.289Z,9.3
2019-03-27T12:00:07.486Z,9.6
2019-03-27T12:05:17.638Z,9.7
2019-03-27T12:10:08.209Z,9.8
2019-03-27T12:15:18.389Z,9.9
2019-03-27T12:20:02.539Z,9.9
2019-03-27T12:25:07.624Z,10.1
2019-03-27T12:30:20.278Z,10.1
2019-03-27T12:35:02.610Z,10.1
2019-03-27T12:40:11.580Z,10.1
2019-03-27T12:45:05.654Z,10
2019-03-27T12:50:07.878Z,9.8
2019-03-27T12:55:05.157Z,9.9
2019-03-27T13:00:05.837Z,9.8
2019-03-27T13:05:10.796Z,9.9
2019-03-27T13:10:05.832Z,9.9
2019-03-27T13:15:03.331Z,9.9
2019-03-27T13:20:04.956Z,9.7
2019-03-27T13:25:04.910Z,9.7
2019-03-27T13:30:02.951Z,9.7
2019-03-27T13:35:07.987Z,10.1
2019-03-27T13:40:02.530Z,10.1
2019-03-27T13:45:10.294Z,10.2
2019-03-27T13:50:38.885Z,10.2
2019-03-27T13:55:05.478Z,10.2
2019-03-27T14:00:05.030Z,10.3
2019-03-27T14:05:05.006Z,10.6
2019-03-27T14:10:05.038Z,10.3
2019-03-27T14:15:02.548Z,10.3
2019-03-27T14:20:10.227Z,9.9
2019-03-27T14:25:10.207Z,10
2019-03-27T14:30:20.844Z,10.1
2019-03-27T14:35:08.286Z,10
2019-03-27T14:40:10.351Z,10
2019-03-27T14:45:07.787Z,10.1
2019-03-27T14:50:07.908Z,10
2019-03-27T14:55:35.767Z,10.1
2019-03-27T15:00:07.893Z,10.1
2019-03-27T15:05:28.140Z,10.2
2019-03-27T15:10:05.158Z,10.2
2019-03-27T15:15:10.168Z,10.2
2019-03-27T15:20:10.828Z,10.4
2019-03-27T15:25:08.315Z,10.5
2019-03-27T15:30:05.758Z,10.6
2019-03-27T15:35:05.751Z,10.6
2019-03-27T15:40:05.784Z,10.6
2019-03-27T15:45:10.679Z,10.6
2019-03-27T15:50:02.607Z,10.6
2019-03-27T15:55:12.665Z,10.5
2019-03-27T16:00:10.140Z,10.4
2019-03-27T16:05:10.014Z,10.4
2019-03-27T16:10:30.366Z,10.4
2019-03-27T16:15:05.784Z,10.5
2019-03-27T16:20:02.776Z,10.5
2019-03-27T16:25:07.760Z,10.5
2019-03-27T16:30:17.903Z,10.5
2019-03-27T16:35:02.600Z,10.5
2019-03-27T16:40:02.959Z,10.5
2019-03-27T16:45:08.166Z,10.4
2019-03-27T16:50:03.146Z,10.4
2019-03-27T16:55:03.123Z,10.4
2019-03-27T17:00:08.111Z,10.3
2019-03-27T17:05:10.543Z,10.3
2019-03-27T17:10:15.570Z,10.3
2019-03-27T17:15:02.814Z,10.3
2019-03-27T17:20:15.599Z,10.3
2019-03-27T17:25:20.996Z,10.3
2019-03-27T17:30:02.958Z,10.3
2019-03-27T17:35:12.999Z,10.1
2019-03-27T17:40:02.453Z,10.1
2019-03-27T17:45:17.555Z,10.1
2019-03-27T17:50:12.617Z,10.1
2019-03-27T17:55:05.072Z,10.1
2019-03-27T18:00:05.476Z,10.1
2019-03-27T18:05:05.415Z,10.1
2019-03-27T18:10:15.454Z,10
2019-03-27T18:15:02.729Z,10
2019-03-27T18:20:02.706Z,10
2019-03-27T18:25:07.673Z,10
2019-03-27T18:35:02.526Z,9.9
2019-03-27T18:40:05.402Z,9.8
2019-03-27T18:45:02.783Z,9.8
2019-03-27T18:50:05.329Z,9.7
2019-03-27T18:55:02.649Z,9.7
2019-03-27T19:00:15.282Z,9.7
2019-03-27T19:05:10.033Z,9.7
2019-03-27T19:10:04.943Z,9.7
2019-03-27T19:15:02.339Z,9.7
2019-03-27T19:20:02.377Z,9.7
2019-03-27T19:25:04.912Z,3.2
2019-03-27T19:30:07.875Z,9.6
2019-03-27T19:35:15.454Z,9.6
2019-03-27T19:40:02.848Z,9.6
2019-03-27T19:45:05.328Z,9.5
2019-03-27T19:50:20.109Z,9.5
2019-03-27T19:55:05.625Z,9.5
2019-03-27T20:00:20.298Z,9.4
2019-03-27T20:05:05.169Z,9.4
2019-03-27T20:10:02.502Z,9.4
2019-03-27T20:15:11.535Z,9.4
2019-03-27T20:20:02.906Z,9.4
2019-03-27T20:25:02.823Z,9.3
2019-03-27T20:30:28.000Z,9.2
2019-03-27T20:35:05.404Z,9.2
2019-03-27T20:40:05.275Z,9.1
2019-03-27T20:45:05.208Z,9.1
2019-03-27T20:50:08.489Z,9.1
2019-03-27T20:55:08.258Z,8.9
2019-03-27T21:00:03.120Z,8.9
2019-03-27T21:05:10.292Z,8.8
2019-03-27T21:10:10.278Z,8.8
2019-03-27T21:15:05.117Z,8.7
2019-03-27T21:20:10.832Z,8.6
2019-03-27T21:25:09.501Z,8.6
2019-03-27T21:30:05.476Z,8.7
2019-03-27T21:35:12.958Z,8.7
2019-03-27T21:40:10.850Z,8.6
2019-03-27T21:45:05.656Z,8.6
2019-03-27T21:50:02.642Z,8.6
2019-03-27T21:55:05.006Z,8.5
2019-03-27T22:00:05.386Z,8.5
2019-03-27T22:05:05.200Z,8.5
2019-03-27T22:10:02.439Z,8.5
2019-03-27T22:15:15.033Z,8.4
2019-03-27T22:20:05.453Z,8.4
2019-03-27T22:25:02.883Z,8.4
2019-03-27T22:30:02.693Z,8.4
2019-03-27T22:35:02.626Z,8.4
2019-03-27T22:40:02.858Z,8.3
2019-03-27T22:45:05.268Z,8.3
2019-03-27T22:50:03.103Z,8.3
2019-03-27T22:55:02.961Z,8.3
2019-03-27T23:00:05.332Z,8.3
2019-03-27T23:05:07.659Z,8.2
2019-03-27T23:10:03.063Z,8.2
2019-03-27T23:15:10.580Z,8.2
2019-03-27T23:20:02.513Z,8.2
2019-03-27T23:25:07.386Z,8.3
2019-03-27T23:30:08.299Z,8.3
2019-03-27T23:35:05.703Z,8.3
2019-03-27T23:40:13.103Z,8.3
2019-03-27T23:45:02.821Z,8.3
2019-03-27T23:50:02.703Z,8.3
2019-03-27T23:55:07.561Z,8.3
